createdAt,value
2023-05-24T00:01:26.638Z,17.24
2023-05-24T00:04:02.928Z,17.22
2023-05-24T00:06:36.047Z,16.96
2023-05-24T00:09:05.816Z,17.01
2023-05-24T00:11:35.294Z,17.17
2023-05-24T00:14:04.630Z,17.24
2023-05-24T00:16:34.174Z,17.21
2023-05-24T00:19:03.405Z,17.10
2023-05-24T00:21:33.057Z,17.05
2023-05-24T00:24:02.625Z,17.16
2023-05-24T00:26:31.971Z,17.13
2023-05-24T00:29:01.694Z,17.19
2023-05-24T00:31:30.730Z,17.21
2023-05-24T00:34:00.179Z,17.26
2023-05-24T00:36:29.918Z,17.22
2023-05-24T00:38:59.017Z,17.28
2023-05-24T00:41:28.416Z,17.35
2023-05-24T00:43:57.915Z,17.23
2023-05-24T00:46:35.130Z,17.26
2023-05-24T00:49:05.689Z,17.21
2023-05-24T00:51:35.966Z,17.11
2023-05-24T00:54:05.098Z,17.38
2023-05-24T00:56:34.370Z,17.38
2023-05-24T00:59:05.032Z,17.49
2023-05-24T01:01:36.262Z,17.53
2023-05-24T01:04:06.511Z,17.48
2023-05-24T01:06:53.132Z,17.42
2023-05-24T01:09:33.165Z,17.27
2023-05-24T01:12:16.897Z,17.28
2023-05-24T01:15:05.767Z,17.30
2023-05-24T01:17:47.129Z,17.23
2023-05-24T01:20:18.941Z,17.27
2023-05-24T01:22:54.210Z,17.30
2023-05-24T01:26:00.146Z,17.12
2023-05-24T01:28:30.885Z,17.10
2023-05-24T01:31:02.059Z,17.08
2023-05-24T01:33:31.472Z,16.79
2023-05-24T01:36:00.568Z,16.88
2023-05-24T01:38:29.752Z,17.08
2023-05-24T01:41:16.958Z,16.48
2023-05-24T01:44:14.110Z,17.01
2023-05-24T01:46:43.683Z,16.58
2023-05-24T01:49:24.383Z,16.89
2023-05-24T01:52:21.295Z,16.69
2023-05-24T01:54:57.550Z,16.35
2023-05-24T01:57:28.327Z,16.10
2023-05-24T02:00:02.022Z,16.15
2023-05-24T02:02:41.915Z,16.09
2023-05-24T02:05:12.771Z,16.28
2023-05-24T02:07:42.687Z,16.43
2023-05-24T02:10:12.027Z,16.19
2023-05-24T02:12:41.076Z,16.08
2023-05-24T02:15:11.438Z,16.03
2023-05-24T02:17:41.700Z,15.75
2023-05-24T02:20:14.205Z,15.80
2023-05-24T02:22:43.311Z,15.74
2023-05-24T02:25:12.282Z,15.64
2023-05-24T02:27:42.720Z,15.66
2023-05-24T02:30:12.182Z,15.79
2023-05-24T02:32:41.802Z,15.76
2023-05-24T02:35:11.830Z,15.78
2023-05-24T02:37:41.581Z,15.90
2023-05-24T02:40:11.171Z,15.79
2023-05-24T02:42:40.706Z,15.88
2023-05-24T02:45:10.012Z,16.06
2023-05-24T02:47:39.524Z,16.08
2023-05-24T02:50:08.851Z,16.00
2023-05-24T02:52:37.931Z,16.04
2023-05-24T02:55:08.222Z,16.07
2023-05-24T02:57:39.264Z,16.09
2023-05-24T03:00:12.508Z,16.09
2023-05-24T03:02:43.620Z,16.02
2023-05-24T03:05:12.884Z,16.00
2023-05-24T03:07:42.059Z,16.08
2023-05-24T03:10:13.121Z,15.94
2023-05-24T03:12:43.424Z,15.89
2023-05-24T03:15:12.774Z,15.90
2023-05-24T03:17:42.129Z,15.82
2023-05-24T03:20:12.582Z,15.82
2023-05-24T03:22:41.812Z,15.69
2023-05-24T03:25:11.084Z,15.62
2023-05-24T03:27:40.422Z,15.68
2023-05-24T03:30:10.714Z,15.63
2023-05-24T03:32:57.725Z,15.61
2023-05-24T03:35:30.433Z,15.57
2023-05-24T03:37:59.671Z,15.57
2023-05-24T03:40:33.280Z,15.54
2023-05-24T03:43:29.060Z,15.50
2023-05-24T03:46:00.992Z,15.47
2023-05-24T03:48:30.467Z,15.45
2023-05-24T03:51:01.039Z,15.40
2023-05-24T03:53:30.302Z,15.45
2023-05-24T03:55:59.319Z,15.35
2023-05-24T03:58:28.477Z,15.35
2023-05-24T04:00:57.580Z,15.30
2023-05-24T04:03:26.970Z,15.32
2023-05-24T04:05:57.183Z,15.33
2023-05-24T04:08:26.707Z,15.37
2023-05-24T04:10:55.796Z,15.32
2023-05-24T04:13:24.898Z,15.30
2023-05-24T04:15:53.993Z,15.32
2023-05-24T04:18:23.189Z,15.29
2023-05-24T04:20:52.382Z,15.36
2023-05-24T04:23:22.167Z,15.37
2023-05-24T04:25:51.559Z,15.28
2023-05-24T04:28:23.147Z,15.31
2023-05-24T04:30:54.702Z,15.30
2023-05-24T04:33:24.355Z,15.23
2023-05-24T04:35:54.196Z,15.20
2023-05-24T04:38:24.108Z,15.23
2023-05-24T04:40:55.085Z,15.20
2023-05-24T04:43:27.163Z,15.07
2023-05-24T04:45:56.729Z,15.06
2023-05-24T04:48:26.065Z,15.05
2023-05-24T04:50:56.781Z,15.09
2023-05-24T04:53:26.647Z,15.13
2023-05-24T04:55:55.770Z,15.03
2023-05-24T04:58:24.854Z,15.04
2023-05-24T05:00:54.007Z,14.91
2023-05-24T05:03:23.121Z,14.97
2023-05-24T05:05:52.507Z,14.80
2023-05-24T05:08:21.532Z,14.67
2023-05-24T05:10:50.682Z,14.87
2023-05-24T05:13:32.319Z,14.78
2023-05-24T05:16:01.472Z,14.65
2023-05-24T05:18:31.122Z,14.55
2023-05-24T05:21:00.223Z,14.53
2023-05-24T05:23:29.384Z,14.24
2023-05-24T05:26:01.663Z,14.39
2023-05-24T05:28:30.662Z,14.20
2023-05-24T05:31:01.055Z,14.52
2023-05-24T05:33:32.107Z,14.53
2023-05-24T05:36:01.737Z,14.47
2023-05-24T05:38:33.395Z,14.58
2023-05-24T05:41:02.536Z,14.44
2023-05-24T05:43:32.991Z,14.16
2023-05-24T05:46:02.342Z,14.25
2023-05-24T05:48:31.367Z,14.38
2023-05-24T05:51:00.640Z,14.50
2023-05-24T05:53:29.678Z,14.50
2023-05-24T05:55:58.628Z,14.36
2023-05-24T05:58:27.539Z,14.41
2023-05-24T06:00:56.687Z,14.44
2023-05-24T06:03:25.885Z,14.40
2023-05-24T06:05:55.295Z,14.32
2023-05-24T06:08:24.276Z,14.43
2023-05-24T06:10:53.986Z,14.45
2023-05-24T06:13:23.026Z,14.40
2023-05-24T06:15:53.621Z,14.28
2023-05-24T06:18:22.704Z,14.21
2023-05-24T06:20:52.441Z,14.18
2023-05-24T06:23:21.633Z,14.09
2023-05-24T06:25:51.684Z,14.02
2023-05-24T06:28:21.204Z,13.89
2023-05-24T06:30:50.385Z,13.82
2023-05-24T06:33:19.941Z,13.74
2023-05-24T06:35:49.253Z,13.73
2023-05-24T06:38:18.723Z,13.82
2023-05-24T06:40:47.833Z,13.88
2023-05-24T06:43:17.158Z,13.95
2023-05-24T06:45:46.146Z,13.85
2023-05-24T06:48:15.789Z,13.97
2023-05-24T06:50:46.734Z,13.74
2023-05-24T06:53:16.556Z,13.71
2023-05-24T06:55:45.454Z,13.59
2023-05-24T06:58:18.722Z,13.56
2023-05-24T07:00:56.916Z,13.81
2023-05-24T07:03:27.339Z,13.69
2023-05-24T07:05:56.795Z,13.74
2023-05-24T07:08:29.194Z,13.73
2023-05-24T07:10:58.536Z,13.79
2023-05-24T07:13:27.513Z,13.87
2023-05-24T07:15:56.635Z,13.76
2023-05-24T07:18:25.604Z,13.75
2023-05-24T07:20:55.703Z,13.94
2023-05-24T07:23:24.787Z,13.91
2023-05-24T07:25:53.786Z,13.89
2023-05-24T07:28:22.762Z,13.88
2023-05-24T07:30:52.507Z,13.73
2023-05-24T07:33:21.815Z,13.83
2023-05-24T07:35:52.808Z,13.73
2023-05-24T07:38:21.995Z,13.65
2023-05-24T07:40:51.396Z,13.69
2023-05-24T07:43:20.684Z,13.78
2023-05-24T07:45:49.726Z,13.71
2023-05-24T07:48:18.673Z,13.50
2023-05-24T07:50:49.472Z,13.46
2023-05-24T07:53:19.315Z,13.53
2023-05-24T07:55:48.587Z,13.47
2023-05-24T07:58:17.549Z,13.56
2023-05-24T08:00:47.220Z,13.39
2023-05-24T08:03:16.530Z,13.22
2023-05-24T08:05:45.883Z,13.33
2023-05-24T08:08:15.470Z,13.34
2023-05-24T08:10:44.468Z,13.30
2023-05-24T08:13:13.995Z,13.44
2023-05-24T08:15:43.209Z,13.29
2023-05-24T08:18:12.814Z,13.16
2023-05-24T08:20:42.324Z,13.13
2023-05-24T08:23:11.568Z,13.30
2023-05-24T08:25:42.124Z,13.55
2023-05-24T08:28:11.989Z,13.64
2023-05-24T08:30:41.495Z,13.37
2023-05-24T08:33:10.537Z,13.23
2023-05-24T08:35:39.618Z,13.55
2023-05-24T08:38:08.705Z,13.34
2023-05-24T08:40:37.792Z,13.37
2023-05-24T08:43:12.815Z,13.13
2023-05-24T08:45:42.295Z,13.03
2023-05-24T08:48:11.707Z,13.02
2023-05-24T08:50:41.068Z,12.97
2023-05-24T08:53:11.604Z,12.98
2023-05-24T08:55:41.514Z,13.04
2023-05-24T08:58:11.747Z,12.99
2023-05-24T09:00:41.404Z,13.01
2023-05-24T09:03:11.498Z,12.95
2023-05-24T09:05:43.014Z,12.89
2023-05-24T09:08:14.365Z,12.88
2023-05-24T09:10:54.186Z,12.78
2023-05-24T09:13:26.051Z,12.84
2023-05-24T09:15:55.077Z,12.92
2023-05-24T09:18:24.251Z,12.93
2023-05-24T09:20:53.566Z,12.88
2023-05-24T09:23:25.631Z,12.77
2023-05-24T09:25:54.792Z,12.85
2023-05-24T09:28:25.564Z,13.06
2023-05-24T09:31:07.479Z,13.22
2023-05-24T09:33:37.765Z,13.20
2023-05-24T09:36:08.064Z,13.01
2023-05-24T09:38:37.784Z,12.92
2023-05-24T09:41:09.271Z,12.89
2023-05-24T09:43:50.381Z,12.92
2023-05-24T09:46:23.247Z,12.86
2023-05-24T09:49:04.641Z,12.81
2023-05-24T09:51:38.172Z,12.82
2023-05-24T09:54:07.676Z,12.82
2023-05-24T09:56:36.920Z,12.77
2023-05-24T09:59:10.774Z,12.88
2023-05-24T10:01:39.915Z,12.91
2023-05-24T10:04:10.264Z,12.82
2023-05-24T10:06:43.792Z,12.62
2023-05-24T10:09:14.782Z,12.58
2023-05-24T10:11:44.249Z,12.69
2023-05-24T10:14:13.864Z,12.69
2023-05-24T10:16:42.797Z,12.63
2023-05-24T10:19:12.687Z,12.55
2023-05-24T10:21:43.961Z,12.73
2023-05-24T10:24:14.983Z,12.77
2023-05-24T10:26:45.124Z,12.69
2023-05-24T10:29:26.509Z,12.53
2023-05-24T10:31:56.622Z,12.76
2023-05-24T10:34:26.141Z,12.87
2023-05-24T10:36:55.434Z,12.72
2023-05-24T10:39:26.522Z,12.69
2023-05-24T10:41:58.166Z,12.80
2023-05-24T10:44:31.907Z,12.72
2023-05-24T10:47:14.922Z,12.71
2023-05-24T10:49:59.269Z,12.66
2023-05-24T10:52:37.857Z,12.60
2023-05-24T10:55:12.463Z,12.46
2023-05-24T10:57:46.060Z,12.38
2023-05-24T11:00:41.270Z,12.36
2023-05-24T11:03:13.717Z,12.38
2023-05-24T11:05:50.741Z,12.41
2023-05-24T11:08:47.290Z,12.50
2023-05-24T11:11:26.516Z,12.64
2023-05-24T11:13:59.464Z,12.53
2023-05-24T11:16:41.974Z,12.32
2023-05-24T11:19:23.154Z,12.28
2023-05-24T11:21:54.276Z,12.33
2023-05-24T11:24:23.368Z,12.28
2023-05-24T11:26:53.781Z,12.28
2023-05-24T11:29:23.315Z,12.42
2023-05-24T11:32:06.972Z,12.29
2023-05-24T11:34:36.476Z,12.30
2023-05-24T11:37:07.923Z,12.28
2023-05-24T11:39:38.506Z,12.18
2023-05-24T11:42:09.360Z,12.10
2023-05-24T11:44:41.215Z,12.04
2023-05-24T11:47:10.435Z,12.11
2023-05-24T11:49:39.421Z,12.21
2023-05-24T11:52:08.426Z,12.14
2023-05-24T11:54:39.473Z,12.10
2023-05-24T11:57:13.449Z,12.00
2023-05-24T11:59:42.992Z,12.18
2023-05-24T12:02:12.308Z,12.20
2023-05-24T12:04:42.042Z,12.20
2023-05-24T12:07:14.174Z,12.18
2023-05-24T12:09:43.322Z,12.10
2023-05-24T12:12:12.578Z,12.24
2023-05-24T12:14:41.735Z,12.23
2023-05-24T12:17:19.005Z,12.14
2023-05-24T12:19:52.640Z,12.11
2023-05-24T12:22:28.462Z,12.15
2023-05-24T12:24:58.641Z,12.12
2023-05-24T12:27:32.260Z,12.19
2023-05-24T12:30:08.517Z,12.21
2023-05-24T12:32:37.884Z,12.01
2023-05-24T12:35:07.394Z,11.95
2023-05-24T12:37:36.796Z,11.91
2023-05-24T12:40:21.532Z,12.07
2023-05-24T12:42:58.044Z,12.09
2023-05-24T12:45:28.679Z,12.11
2023-05-24T12:48:03.505Z,12.16
2023-05-24T12:50:32.815Z,12.03
2023-05-24T12:53:02.079Z,12.06
2023-05-24T12:55:31.560Z,12.00
2023-05-24T12:58:03.387Z,12.31
2023-05-24T13:00:33.109Z,12.45
2023-05-24T13:03:03.916Z,12.11
2023-05-24T13:05:33.324Z,12.57
2023-05-24T13:08:02.905Z,12.29
2023-05-24T13:10:32.087Z,12.10
2023-05-24T13:13:01.402Z,12.14
2023-05-24T13:15:31.349Z,11.99
2023-05-24T13:18:00.727Z,12.32
2023-05-24T13:20:30.015Z,12.48
2023-05-24T13:22:59.059Z,12.38
2023-05-24T13:25:28.357Z,12.06
2023-05-24T13:27:57.342Z,12.10
2023-05-24T13:30:29.063Z,12.48
2023-05-24T13:33:00.197Z,12.49
2023-05-24T13:35:32.167Z,12.42
2023-05-24T13:38:01.556Z,12.45
2023-05-24T13:40:30.971Z,12.40
2023-05-24T13:43:00.262Z,12.27
2023-05-24T13:45:31.057Z,12.13
2023-05-24T13:48:04.778Z,12.08
2023-05-24T13:50:38.109Z,11.98
2023-05-24T13:53:10.719Z,12.44
2023-05-24T13:55:39.913Z,12.54
2023-05-24T13:58:09.240Z,12.29
2023-05-24T14:00:38.573Z,12.30
2023-05-24T14:03:07.771Z,12.15
2023-05-24T14:05:37.708Z,12.14
2023-05-24T14:08:07.496Z,12.18
2023-05-24T14:10:37.937Z,12.37
2023-05-24T14:18:51.031Z,12.37
2023-05-24T14:21:24.532Z,12.16
2023-05-24T14:23:54.192Z,12.07
2023-05-24T14:26:24.475Z,12.17
2023-05-24T14:28:56.345Z,12.24
2023-05-24T14:31:26.543Z,12.60
2023-05-24T14:33:55.783Z,12.73
2023-05-24T14:36:24.953Z,12.52
2023-05-24T14:38:54.116Z,12.81
2023-05-24T14:41:23.587Z,12.69
2023-05-24T14:43:52.963Z,12.95
2023-05-24T14:46:22.176Z,12.38
2023-05-24T14:48:51.338Z,12.85
2023-05-24T14:51:21.418Z,12.80
2023-05-24T14:53:50.933Z,12.83
2023-05-24T14:56:20.001Z,12.64
2023-05-24T14:58:49.405Z,12.70
2023-05-24T15:01:20.949Z,12.92
2023-05-24T15:03:50.397Z,12.81
2023-05-24T15:06:19.460Z,12.72
2023-05-24T15:08:48.681Z,12.72
2023-05-24T15:11:18.489Z,12.72
2023-05-24T15:13:47.574Z,12.75
2023-05-24T15:16:19.774Z,12.45
2023-05-24T15:18:48.940Z,12.61
2023-05-24T15:21:18.117Z,12.77
2023-05-24T15:23:47.643Z,12.85
2023-05-24T15:26:16.785Z,12.90
2023-05-24T15:28:46.062Z,12.88
2023-05-24T15:31:15.200Z,13.00
2023-05-24T15:33:44.381Z,13.05
2023-05-24T15:36:15.182Z,13.00
2023-05-24T15:38:44.554Z,12.97
2023-05-24T15:41:13.538Z,13.07
2023-05-24T15:43:42.846Z,13.21
2023-05-24T15:46:11.982Z,13.20
2023-05-24T15:48:41.295Z,13.24
2023-05-24T15:53:42.580Z,13.34
2023-05-24T15:56:12.520Z,13.39
2023-05-24T15:58:42.043Z,13.53
2023-05-24T16:01:11.158Z,13.29
2023-05-24T16:03:40.512Z,13.40
2023-05-24T16:06:10.124Z,13.55
2023-05-24T16:08:39.293Z,13.51
2023-05-24T16:11:11.558Z,13.46
2023-05-24T16:13:40.798Z,13.44
2023-05-24T16:16:09.723Z,13.55
2023-05-24T16:18:41.892Z,13.56
2023-05-24T16:21:10.866Z,13.64
2023-05-24T16:23:40.043Z,13.79
2023-05-24T16:26:09.302Z,13.79
2023-05-24T16:28:38.366Z,13.86
2023-05-24T16:31:07.571Z,13.75
2023-05-24T16:33:36.564Z,13.95
2023-05-24T16:36:05.830Z,14.00
2023-05-24T16:38:35.044Z,14.02
2023-05-24T16:41:04.179Z,14.08
2023-05-24T16:43:34.035Z,14.16
2023-05-24T16:46:03.603Z,14.12
2023-05-24T16:48:35.845Z,14.14
2023-05-24T16:51:05.052Z,14.20
2023-05-24T16:53:34.140Z,14.41
2023-05-24T16:56:03.353Z,14.28
2023-05-24T16:58:32.465Z,14.30
2023-05-24T17:01:01.618Z,14.28
2023-05-24T17:03:33.493Z,14.48
2023-05-24T17:06:05.763Z,14.67
2023-05-24T17:08:36.706Z,14.64
2023-05-24T17:11:06.952Z,14.58
2023-05-24T17:13:36.640Z,14.53
2023-05-24T17:16:05.903Z,14.59
2023-05-24T17:18:35.057Z,14.81
2023-05-24T17:21:06.070Z,14.93
2023-05-24T17:23:40.483Z,14.89
2023-05-24T17:26:09.728Z,15.15
2023-05-24T17:28:38.814Z,15.21
2023-05-24T17:31:10.580Z,15.08
2023-05-24T17:33:39.651Z,15.22
2023-05-24T17:36:10.469Z,15.21
2023-05-24T17:38:40.273Z,15.38
2023-05-24T17:41:10.449Z,15.54
2023-05-24T17:43:40.941Z,15.84
2023-05-24T17:46:10.786Z,15.82
2023-05-24T17:48:43.688Z,16.10
2023-05-24T17:51:12.963Z,16.34
2023-05-24T17:53:44.040Z,16.46
2023-05-24T17:56:13.847Z,16.44
2023-05-24T17:58:43.610Z,16.51
2023-05-24T18:01:13.747Z,16.62
2023-05-24T18:03:43.553Z,16.74
2023-05-24T18:06:13.096Z,16.59
2023-05-24T18:08:44.262Z,16.61
2023-05-24T18:11:14.720Z,16.42
2023-05-24T18:13:44.409Z,16.57
2023-05-24T18:16:14.484Z,16.84
2023-05-24T18:18:44.723Z,17.33
2023-05-24T18:21:13.974Z,17.41
2023-05-24T18:23:44.268Z,17.69
2023-05-24T18:26:16.275Z,18.01
2023-05-24T18:28:45.432Z,17.59
2023-05-24T18:31:17.792Z,17.25
2023-05-24T18:33:47.113Z,17.11
2023-05-24T18:36:16.148Z,17.03
2023-05-24T18:38:48.079Z,17.01
2023-05-24T18:41:17.794Z,17.02
2023-05-24T18:43:46.959Z,17.26
2023-05-24T18:46:16.740Z,17.43
2023-05-24T18:48:45.869Z,17.21
2023-05-24T18:51:15.594Z,17.70
2023-05-24T18:53:46.384Z,17.69
2023-05-24T18:56:15.754Z,17.46
2023-05-24T18:58:47.041Z,17.56
2023-05-24T19:01:16.333Z,17.92
2023-05-24T19:03:45.464Z,17.78
2023-05-24T19:06:41.182Z,18.05
2023-05-24T19:09:35.792Z,18.20
2023-05-24T19:12:05.525Z,18.64
2023-05-24T19:14:34.482Z,18.44
2023-05-24T19:17:03.729Z,18.84
2023-05-24T19:19:32.911Z,18.66
2023-05-24T19:22:02.827Z,18.62
2023-05-24T19:24:31.740Z,18.71
2023-05-24T19:27:02.189Z,18.60
2023-05-24T19:29:31.641Z,18.87
2023-05-24T19:32:00.587Z,18.49
2023-05-24T19:34:32.172Z,18.92
2023-05-24T19:37:01.368Z,18.74
2023-05-24T19:39:33.552Z,19.06
2023-05-24T19:42:08.701Z,19.06
2023-05-24T19:44:37.720Z,19.00
2023-05-24T19:47:07.183Z,18.99
2023-05-24T19:49:36.395Z,18.71
2023-05-24T19:52:05.604Z,18.79
2023-05-24T19:54:34.675Z,18.78
2023-05-24T19:57:03.993Z,18.67
2023-05-24T19:59:33.094Z,18.48
2023-05-24T20:02:02.296Z,18.29
2023-05-24T20:04:31.387Z,18.51
2023-05-24T20:07:00.859Z,18.40
2023-05-24T20:09:29.939Z,18.28
2023-05-24T20:11:58.956Z,18.19
2023-05-24T20:14:29.034Z,18.15
2023-05-24T20:16:59.329Z,18.31
2023-05-24T20:19:29.032Z,18.40
2023-05-24T20:21:59.044Z,18.39
2023-05-24T20:24:28.066Z,18.48
2023-05-24T20:26:56.984Z,18.50
2023-05-24T20:29:26.024Z,18.40
2023-05-24T20:31:55.260Z,18.44
2023-05-24T20:34:24.573Z,18.41
2023-05-24T20:36:53.615Z,18.42
2023-05-24T20:39:28.499Z,18.38
2023-05-24T20:42:00.815Z,18.38
2023-05-24T20:44:29.934Z,18.22
2023-05-24T20:46:59.002Z,18.40
2023-05-24T20:49:28.000Z,18.36
2023-05-24T20:51:59.282Z,18.56
2023-05-24T20:54:28.371Z,18.90
2023-05-24T20:56:57.349Z,19.11
2023-05-24T20:59:26.849Z,19.48
2023-05-24T21:01:56.451Z,19.79
2023-05-24T21:04:25.533Z,19.59
2023-05-24T21:06:55.918Z,19.90
2023-05-24T21:09:25.197Z,19.20
2023-05-24T21:11:54.318Z,19.43
2023-05-24T21:14:23.642Z,19.12
2023-05-24T21:16:52.701Z,19.15
2023-05-24T21:19:21.761Z,19.05
2023-05-24T21:21:50.685Z,19.05
2023-05-24T21:24:19.854Z,18.84
2023-05-24T21:26:48.844Z,18.81
2023-05-24T21:29:17.845Z,19.12
2023-05-24T21:31:47.235Z,19.35
2023-05-24T21:34:16.565Z,19.17
2023-05-24T21:36:46.935Z,19.15
2023-05-24T21:39:16.167Z,18.98
2023-05-24T21:41:45.138Z,18.74
2023-05-24T21:44:14.521Z,19.62
2023-05-24T21:46:43.707Z,19.75
2023-05-24T21:49:13.061Z,20.04
2023-05-24T21:51:42.156Z,20.30
2023-05-24T21:54:11.208Z,20.89
2023-05-24T21:56:40.357Z,20.75
2023-05-24T21:59:09.363Z,20.60
2023-05-24T22:01:38.571Z,19.98
2023-05-24T22:04:10.169Z,20.26
2023-05-24T22:06:43.465Z,20.84
2023-05-24T22:09:14.503Z,20.91
2023-05-24T22:11:43.813Z,21.18
2023-05-24T22:14:13.215Z,21.45
2023-05-24T22:16:42.744Z,21.29
2023-05-24T22:19:17.009Z,21.86
2023-05-24T22:21:52.982Z,21.62
2023-05-24T22:24:22.197Z,21.83
2023-05-24T22:26:51.529Z,21.68
2023-05-24T22:29:21.279Z,21.61
2023-05-24T22:31:53.545Z,21.70
2023-05-24T22:34:31.466Z,21.76
2023-05-24T22:37:00.654Z,22.45
2023-05-24T22:39:29.873Z,22.41
2023-05-24T22:42:04.335Z,22.72
2023-05-24T22:44:34.958Z,22.90
2023-05-24T22:47:06.758Z,22.92
2023-05-24T22:49:36.649Z,22.74
2023-05-24T22:52:06.023Z,22.58
2023-05-24T22:54:35.301Z,22.43
2023-05-24T22:57:04.547Z,22.58
2023-05-24T22:59:33.780Z,22.40
2023-05-24T23:02:02.721Z,22.58
2023-05-24T23:04:31.940Z,22.37
2023-05-24T23:07:02.455Z,22.11
2023-05-24T23:09:35.489Z,21.89
2023-05-24T23:12:08.948Z,21.45
2023-05-24T23:14:39.751Z,20.88
2023-05-24T23:17:16.575Z,21.57
2023-05-24T23:19:45.861Z,21.98
2023-05-24T23:22:19.414Z,22.18
2023-05-24T23:24:49.622Z,21.95
2023-05-24T23:27:19.115Z,22.32
2023-05-24T23:29:48.385Z,22.31
2023-05-24T23:32:17.563Z,22.34
2023-05-24T23:34:46.717Z,22.77
2023-05-24T23:37:15.667Z,22.55
2023-05-24T23:39:44.696Z,22.41
2023-05-24T23:42:13.749Z,22.65
2023-05-24T23:44:42.955Z,22.72
2023-05-24T23:47:15.220Z,22.25
2023-05-24T23:49:44.302Z,21.88
2023-05-24T23:52:13.373Z,22.54
2023-05-24T23:54:42.859Z,22.83
2023-05-24T23:57:14.858Z,23.08
2023-05-24T23:59:48.584Z,23.19
